sensor_id;sensor_type;location;lat;lon;timestamp;pressure;altitude;pressure_sealevel;temperature;humidity
79527;BME280;68974;47.754;-3.364;2023-06-22T00:00:53;101753.16;;;18.48;75.30
79527;BME280;68974;47.754;-3.364;2023-06-22T00:03:19;101755.13;;;18.47;74.99
79527;BME280;68974;47.754;-3.364;2023-06-22T00:05:46;101755.84;;;18.53;74.82
79527;BME280;68974;47.754;-3.364;2023-06-22T00:08:12;101761.50;;;18.48;74.76
79527;BME280;68974;47.754;-3.364;2023-06-22T00:10:37;101757.59;;;18.49;74.35
79527;BME280;68974;47.754;-3.364;2023-06-22T00:13:03;101755.94;;;18.48;74.81
79527;BME280;68974;47.754;-3.364;2023-06-22T00:15:29;101750.84;;;18.55;74.02
79527;BME280;68974;47.754;-3.364;2023-06-22T00:17:55;101756.03;;;18.43;74.21
79527;BME280;68974;47.754;-3.364;2023-06-22T00:20:22;101747.69;;;18.43;74.08
79527;BME280;68974;47.754;-3.364;2023-06-22T00:22:47;101757.81;;;18.39;74.16
79527;BME280;68974;47.754;-3.364;2023-06-22T00:25:13;101754.09;;;18.43;73.96
79527;BME280;68974;47.754;-3.364;2023-06-22T00:27:38;101759.78;;;18.52;73.11
79527;BME280;68974;47.754;-3.364;2023-06-22T00:30:04;101758.53;;;18.44;73.56
79527;BME280;68974;47.754;-3.364;2023-06-22T00:32:30;101764.63;;;18.60;72.94
79527;BME280;68974;47.754;-3.364;2023-06-22T00:34:55;101757.00;;;18.52;73.01
79527;BME280;68974;47.754;-3.364;2023-06-22T00:37:21;101754.91;;;18.44;73.18
79527;BME280;68974;47.754;-3.364;2023-06-22T00:39:53;101748.75;;;18.47;73.62
79527;BME280;68974;47.754;-3.364;2023-06-22T00:42:19;101742.25;;;18.38;73.38
79527;BME280;68974;47.754;-3.364;2023-06-22T00:44:45;101737.41;;;18.30;73.93
79527;BME280;68974;47.754;-3.364;2023-06-22T00:47:15;101742.56;;;18.23;73.99
79527;BME280;68974;47.754;-3.364;2023-06-22T00:49:42;101736.78;;;18.19;74.12
79527;BME280;68974;47.754;-3.364;2023-06-22T00:52:08;101747.81;;;18.24;73.60
79527;BME280;68974;47.754;-3.364;2023-06-22T00:54:39;101743.81;;;18.16;73.99
79527;BME280;68974;47.754;-3.364;2023-06-22T00:57:05;101742.13;;;18.15;73.55
79527;BME280;68974;47.754;-3.364;2023-06-22T00:59:31;101738.53;;;18.15;73.85
79527;BME280;68974;47.754;-3.364;2023-06-22T01:01:57;101734.09;;;18.14;74.01
79527;BME280;68974;47.754;-3.364;2023-06-22T01:04:25;101747.41;;;18.17;73.44
79527;BME280;68974;47.754;-3.364;2023-06-22T01:07:07;101738.53;;;18.15;73.11
79527;BME280;68974;47.754;-3.364;2023-06-22T01:09:54;101740.91;;;18.08;73.41
79527;BME280;68974;47.754;-3.364;2023-06-22T01:12:22;101745.66;;;18.07;73.55
79527;BME280;68974;47.754;-3.364;2023-06-22T01:14:55;101742.88;;;18.07;73.56
79527;BME280;68974;47.754;-3.364;2023-06-22T01:17:23;101737.72;;;18.14;73.34
79527;BME280;68974;47.754;-3.364;2023-06-22T01:19:51;101742.25;;;18.10;72.73
79527;BME280;68974;47.754;-3.364;2023-06-22T01:22:23;101746.69;;;18.11;72.63
79527;BME280;68974;47.754;-3.364;2023-06-22T01:25:11;101747.50;;;17.98;73.19
79527;BME280;68974;47.754;-3.364;2023-06-22T01:31:01;101746.03;;;17.87;73.31
79527;BME280;68974;47.754;-3.364;2023-06-22T01:33:33;101747.69;;;17.88;73.23
79527;BME280;68974;47.754;-3.364;2023-06-22T01:36:01;101751.75;;;17.77;73.74
79527;BME280;68974;47.754;-3.364;2023-06-22T01:38:28;101750.72;;;17.73;73.66
79527;BME280;68974;47.754;-3.364;2023-06-22T01:40:54;101755.25;;;17.69;74.02
79527;BME280;68974;47.754;-3.364;2023-06-22T01:43:21;101746.38;;;17.67;73.92
79527;BME280;68974;47.754;-3.364;2023-06-22T01:45:48;101740.44;;;17.55;74.36
79527;BME280;68974;47.754;-3.364;2023-06-22T01:48:14;101738.47;;;17.55;74.46
79527;BME280;68974;47.754;-3.364;2023-06-22T01:50:40;101745.94;;;17.60;74.34
79527;BME280;68974;47.754;-3.364;2023-06-22T01:53:06;101742.69;;;17.53;74.52
79527;BME280;68974;47.754;-3.364;2023-06-22T01:55:32;101741.88;;;17.52;74.79
79527;BME280;68974;47.754;-3.364;2023-06-22T01:57:57;101746.06;;;17.50;74.45
79527;BME280;68974;47.754;-3.364;2023-06-22T02:00:25;101743.00;;;17.51;74.43
79527;BME280;68974;47.754;-3.364;2023-06-22T02:02:58;101750.81;;;17.49;74.49
79527;BME280;68974;47.754;-3.364;2023-06-22T02:05:26;101740.00;;;17.48;74.46
79527;BME280;68974;47.754;-3.364;2023-06-22T02:08:11;101744.44;;;17.49;73.77
79527;BME280;68974;47.754;-3.364;2023-06-22T02:10:38;101745.03;;;17.46;73.89
79527;BME280;68974;47.754;-3.364;2023-06-22T02:13:07;101746.47;;;17.43;73.49
79527;BME280;68974;47.754;-3.364;2023-06-22T02:15:34;101745.13;;;17.41;73.89
79527;BME280;68974;47.754;-3.364;2023-06-22T02:18:00;101737.59;;;17.41;73.24
79527;BME280;68974;47.754;-3.364;2023-06-22T02:20:25;101740.47;;;17.36;73.12
79527;BME280;68974;47.754;-3.364;2023-06-22T02:22:51;101735.16;;;17.40;73.27
79527;BME280;68974;47.754;-3.364;2023-06-22T02:25:16;101735.81;;;17.31;73.10
79527;BME280;68974;47.754;-3.364;2023-06-22T02:27:42;101734.09;;;17.36;72.94
79527;BME280;68974;47.754;-3.364;2023-06-22T02:30:10;101735.81;;;17.31;72.66
79527;BME280;68974;47.754;-3.364;2023-06-22T02:32:36;101725.41;;;17.23;72.46
79527;BME280;68974;47.754;-3.364;2023-06-22T02:35:01;101729.91;;;17.19;72.99
79527;BME280;68974;47.754;-3.364;2023-06-22T02:37:32;101728.84;;;17.15;72.70
79527;BME280;68974;47.754;-3.364;2023-06-22T02:39:57;101718.94;;;17.28;72.20
79527;BME280;68974;47.754;-3.364;2023-06-22T02:42:22;101721.72;;;17.28;72.65
79527;BME280;68974;47.754;-3.364;2023-06-22T02:44:48;101731.78;;;17.24;71.95
79527;BME280;68974;47.754;-3.364;2023-06-22T02:47:13;101727.66;;;17.21;71.65
79527;BME280;68974;47.754;-3.364;2023-06-22T02:49:39;101721.13;;;17.12;71.77
79527;BME280;68974;47.754;-3.364;2023-06-22T02:52:04;101725.94;;;17.07;71.95
79527;BME280;68974;47.754;-3.364;2023-06-22T02:54:30;101720.63;;;17.10;71.99
79527;BME280;68974;47.754;-3.364;2023-06-22T02:56:55;101730.72;;;17.01;72.20
79527;BME280;68974;47.754;-3.364;2023-06-22T02:59:21;101721.28;;;17.02;72.04
79527;BME280;68974;47.754;-3.364;2023-06-22T03:01:49;101721.91;;;16.99;71.83
79527;BME280;68974;47.754;-3.364;2023-06-22T03:04:15;101719.78;;;16.91;72.12
79527;BME280;68974;47.754;-3.364;2023-06-22T03:06:40;101725.72;;;17.03;71.68
79527;BME280;68974;47.754;-3.364;2023-06-22T03:09:06;101718.06;;;16.95;71.63
79527;BME280;68974;47.754;-3.364;2023-06-22T03:11:33;101722.56;;;16.91;71.50
79527;BME280;68974;47.754;-3.364;2023-06-22T03:13:59;101724.50;;;16.72;72.41
79527;BME280;68974;47.754;-3.364;2023-06-22T03:16:25;101729.69;;;16.78;72.22
79527;BME280;68974;47.754;-3.364;2023-06-22T03:18:50;101725.56;;;16.76;71.98
79527;BME280;68974;47.754;-3.364;2023-06-22T03:21:16;101725.16;;;16.64;72.76
79527;BME280;68974;47.754;-3.364;2023-06-22T03:23:43;101727.44;;;16.57;72.61
79527;BME280;68974;47.754;-3.364;2023-06-22T03:26:09;101729.97;;;16.58;72.87
79527;BME280;68974;47.754;-3.364;2023-06-22T03:28:35;101736.31;;;16.59;72.34
79527;BME280;68974;47.754;-3.364;2023-06-22T03:31:00;101737.16;;;16.59;72.67
79527;BME280;68974;47.754;-3.364;2023-06-22T03:33:25;101744.53;;;16.69;72.57
79527;BME280;68974;47.754;-3.364;2023-06-22T03:35:51;101745.06;;;16.71;72.29
79527;BME280;68974;47.754;-3.364;2023-06-22T03:38:17;101740.91;;;16.68;72.13
79527;BME280;68974;47.754;-3.364;2023-06-22T03:40:43;101743.41;;;16.70;72.11
79527;BME280;68974;47.754;-3.364;2023-06-22T03:43:08;101748.94;;;16.70;71.88
79527;BME280;68974;47.754;-3.364;2023-06-22T03:45:33;101746.25;;;16.65;72.12
79527;BME280;68974;47.754;-3.364;2023-06-22T03:48:00;101745.75;;;16.58;72.21
79527;BME280;68974;47.754;-3.364;2023-06-22T03:50:25;101746.34;;;16.55;72.56
79527;BME280;68974;47.754;-3.364;2023-06-22T03:52:51;101743.28;;;16.56;72.28
79527;BME280;68974;47.754;-3.364;2023-06-22T03:55:19;101744.97;;;16.52;72.50
79527;BME280;68974;47.754;-3.364;2023-06-22T03:57:44;101747.00;;;16.46;72.72
79527;BME280;68974;47.754;-3.364;2023-06-22T04:00:10;101749.53;;;16.43;72.81
79527;BME280;68974;47.754;-3.364;2023-06-22T04:02:36;101758.97;;;16.42;72.77
79527;BME280;68974;47.754;-3.364;2023-06-22T04:05:01;101753.06;;;16.48;72.84
79527;BME280;68974;47.754;-3.364;2023-06-22T04:07:27;101752.19;;;16.53;72.62
79527;BME280;68974;47.754;-3.364;2023-06-22T04:09:52;101759.44;;;16.49;72.62
79527;BME280;68974;47.754;-3.364;2023-06-22T04:12:17;101766.28;;;16.57;72.56
79527;BME280;68974;47.754;-3.364;2023-06-22T04:14:43;101771.03;;;16.56;72.75
79527;BME280;68974;47.754;-3.364;2023-06-22T04:17:08;101769.94;;;16.52;72.54
79527;BME280;68974;47.754;-3.364;2023-06-22T04:19:33;101775.84;;;16.45;72.84
79527;BME280;68974;47.754;-3.364;2023-06-22T04:21:59;101776.09;;;16.49;72.65
79527;BME280;68974;47.754;-3.364;2023-06-22T04:24:24;101779.16;;;16.47;72.56
79527;BME280;68974;47.754;-3.364;2023-06-22T04:26:50;101774.75;;;16.46;72.48
79527;BME280;68974;47.754;-3.364;2023-06-22T04:29:20;101784.81;;;16.37;72.85
79527;BME280;68974;47.754;-3.364;2023-06-22T04:31:45;101787.00;;;16.40;72.67
79527;BME280;68974;47.754;-3.364;2023-06-22T04:34:16;101791.44;;;16.41;72.64
79527;BME280;68974;47.754;-3.364;2023-06-22T04:36:42;101790.13;;;16.34;73.12
79527;BME280;68974;47.754;-3.364;2023-06-22T04:39:11;101794.66;;;16.25;73.28
79527;BME280;68974;47.754;-3.364;2023-06-22T04:41:37;101790.84;;;16.21;73.32
79527;BME280;68974;47.754;-3.364;2023-06-22T04:44:13;101786.00;;;16.31;73.54
79527;BME280;68974;47.754;-3.364;2023-06-22T04:46:39;101787.63;;;16.32;73.21
79527;BME280;68974;47.754;-3.364;2023-06-22T04:49:08;101794.78;;;16.38;73.77
79527;BME280;68974;47.754;-3.364;2023-06-22T04:51:38;101792.13;;;16.28;73.61
79527;BME280;68974;47.754;-3.364;2023-06-22T04:54:05;101790.72;;;16.31;74.11
79527;BME280;68974;47.754;-3.364;2023-06-22T04:56:31;101792.38;;;16.32;74.26
79527;BME280;68974;47.754;-3.364;2023-06-22T04:58:56;101793.19;;;16.32;73.89
79527;BME280;68974;47.754;-3.364;2023-06-22T05:01:23;101794.00;;;16.33;73.88
79527;BME280;68974;47.754;-3.364;2023-06-22T05:03:49;101795.94;;;16.32;73.89
79527;BME280;68974;47.754;-3.364;2023-06-22T05:06:15;101801.97;;;16.39;73.88
79527;BME280;68974;47.754;-3.364;2023-06-22T05:08:40;101801.97;;;16.39;73.88
79527;BME280;68974;47.754;-3.364;2023-06-22T05:11:06;101798.09;;;16.40;73.79
79527;BME280;68974;47.754;-3.364;2023-06-22T05:13:32;101809.09;;;16.51;73.75
79527;BME280;68974;47.754;-3.364;2023-06-22T05:15:57;101810.44;;;16.53;73.60
79527;BME280;68974;47.754;-3.364;2023-06-22T05:18:30;101805.69;;;16.59;73.16
79527;BME280;68974;47.754;-3.364;2023-06-22T05:20:57;101808.34;;;16.69;73.23
79527;BME280;68974;47.754;-3.364;2023-06-22T05:23:23;101809.25;;;16.83;72.36
79527;BME280;68974;47.754;-3.364;2023-06-22T05:25:48;101807.84;;;16.85;71.91
79527;BME280;68974;47.754;-3.364;2023-06-22T05:28:14;101811.97;;;16.88;72.16
79527;BME280;68974;47.754;-3.364;2023-06-22T05:30:39;101814.63;;;16.98;71.64
79527;BME280;68974;47.754;-3.364;2023-06-22T05:33:04;101807.88;;;17.04;71.11
79527;BME280;68974;47.754;-3.364;2023-06-22T05:35:30;101810.50;;;17.14;70.94
79527;BME280;68974;47.754;-3.364;2023-06-22T05:37:56;101807.34;;;17.21;70.13
79527;BME280;68974;47.754;-3.364;2023-06-22T05:40:21;101805.78;;;17.15;70.69
79527;BME280;68974;47.754;-3.364;2023-06-22T05:42:47;101804.19;;;17.27;70.14
79527;BME280;68974;47.754;-3.364;2023-06-22T05:45:13;101804.06;;;17.38;70.02
79527;BME280;68974;47.754;-3.364;2023-06-22T05:47:38;101808.56;;;17.33;70.10
79527;BME280;68974;47.754;-3.364;2023-06-22T05:50:05;101817.25;;;17.46;69.94
79527;BME280;68974;47.754;-3.364;2023-06-22T05:52:32;101809.38;;;17.53;69.89
79527;BME280;68974;47.754;-3.364;2023-06-22T05:54:58;101802.44;;;17.50;69.35
79527;BME280;68974;47.754;-3.364;2023-06-22T05:57:23;101789.38;;;17.51;69.75
79527;BME280;68974;47.754;-3.364;2023-06-22T05:59:49;101805.44;;;17.59;69.31
79527;BME280;68974;47.754;-3.364;2023-06-22T06:02:14;101808.25;;;17.54;69.65
79527;BME280;68974;47.754;-3.364;2023-06-22T06:04:39;101808.84;;;17.51;69.57
79527;BME280;68974;47.754;-3.364;2023-06-22T06:07:05;101810.50;;;17.52;69.65
79527;BME280;68974;47.754;-3.364;2023-06-22T06:09:30;101820.63;;;17.43;70.34
79527;BME280;68974;47.754;-3.364;2023-06-22T06:11:56;101815.16;;;17.38;70.55
79527;BME280;68974;47.754;-3.364;2023-06-22T06:14:21;101814.94;;;17.34;70.67
79527;BME280;68974;47.754;-3.364;2023-06-22T06:16:48;101811.94;;;17.49;70.19
79527;BME280;68974;47.754;-3.364;2023-06-22T06:19:14;101813.34;;;17.47;70.41
79527;BME280;68974;47.754;-3.364;2023-06-22T06:21:39;101815.31;;;17.65;69.98
79527;BME280;68974;47.754;-3.364;2023-06-22T06:24:05;101823.41;;;17.80;69.17
79527;BME280;68974;47.754;-3.364;2023-06-22T06:26:30;101823.06;;;18.00;68.80
79527;BME280;68974;47.754;-3.364;2023-06-22T06:29:00;101831.75;;;18.12;68.54
79527;BME280;68974;47.754;-3.364;2023-06-22T06:31:27;101830.19;;;18.06;68.57
79527;BME280;68974;47.754;-3.364;2023-06-22T06:33:54;101830.09;;;18.11;68.17
79527;BME280;68974;47.754;-3.364;2023-06-22T06:36:19;101825.38;;;18.26;68.18
79527;BME280;68974;47.754;-3.364;2023-06-22T06:38:45;101817.16;;;18.34;67.86
79527;BME280;68974;47.754;-3.364;2023-06-22T06:41:12;101825.00;;;18.46;67.58
79527;BME280;68974;47.754;-3.364;2023-06-22T06:43:38;101822.00;;;18.42;68.15
79527;BME280;68974;47.754;-3.364;2023-06-22T06:46:03;101820.47;;;18.50;67.39
79527;BME280;68974;47.754;-3.364;2023-06-22T06:48:28;101821.53;;;18.54;68.61
79527;BME280;68974;47.754;-3.364;2023-06-22T06:50:54;101822.97;;;18.65;68.51
79527;BME280;68974;47.754;-3.364;2023-06-22T06:53:19;101828.94;;;18.72;67.97
79527;BME280;68974;47.754;-3.364;2023-06-22T06:55:45;101828.25;;;18.80;67.51
79527;BME280;68974;47.754;-3.364;2023-06-22T06:58:10;101832.63;;;19.09;66.95
79527;BME280;68974;47.754;-3.364;2023-06-22T07:00:38;101832.00;;;19.12;66.08
79527;BME280;68974;47.754;-3.364;2023-06-22T07:03:04;101826.84;;;19.19;65.45
79527;BME280;68974;47.754;-3.364;2023-06-22T07:05:29;101832.56;;;19.36;64.85
79527;BME280;68974;47.754;-3.364;2023-06-22T07:07:55;101839.28;;;19.49;65.16
79527;BME280;68974;47.754;-3.364;2023-06-22T07:10:20;101840.00;;;19.54;64.90
79527;BME280;68974;47.754;-3.364;2023-06-22T07:12:46;101840.13;;;19.71;64.16
79527;BME280;68974;47.754;-3.364;2023-06-22T07:15:11;101841.53;;;19.82;63.68
79527;BME280;68974;47.754;-3.364;2023-06-22T07:17:38;101836.53;;;19.93;62.94
79527;BME280;68974;47.754;-3.364;2023-06-22T07:20:07;101837.56;;;20.06;62.80
79527;BME280;68974;47.754;-3.364;2023-06-22T07:22:38;101834.53;;;20.16;62.28
79527;BME280;68974;47.754;-3.364;2023-06-22T07:25:04;101841.97;;;20.29;62.49
79527;BME280;68974;47.754;-3.364;2023-06-22T07:27:37;101849.06;;;20.57;61.57
79527;BME280;68974;47.754;-3.364;2023-06-22T07:30:03;101855.41;;;20.89;60.70
79527;BME280;68974;47.754;-3.364;2023-06-22T07:32:29;101847.19;;;20.92;60.71
79527;BME280;68974;47.754;-3.364;2023-06-22T07:34:54;101843.78;;;21.04;59.89
79527;BME280;68974;47.754;-3.364;2023-06-22T07:37:20;101843.66;;;21.09;60.30
79527;BME280;68974;47.754;-3.364;2023-06-22T07:39:47;101844.34;;;21.32;59.38
79527;BME280;68974;47.754;-3.364;2023-06-22T07:42:14;101846.69;;;21.47;58.98
79527;BME280;68974;47.754;-3.364;2023-06-22T07:44:43;101858.53;;;21.52;58.10
79527;BME280;68974;47.754;-3.364;2023-06-22T07:47:09;101857.03;;;21.81;58.05
79527;BME280;68974;47.754;-3.364;2023-06-22T07:49:35;101867.25;;;22.11;57.61
79527;BME280;68974;47.754;-3.364;2023-06-22T07:52:00;101854.72;;;22.17;56.52
79527;BME280;68974;47.754;-3.364;2023-06-22T07:54:27;101864.03;;;22.38;56.38
79527;BME280;68974;47.754;-3.364;2023-06-22T07:56:52;101866.31;;;22.54;55.76
79527;BME280;68974;47.754;-3.364;2023-06-22T07:59:18;101866.91;;;22.68;55.44
79527;BME280;68974;47.754;-3.364;2023-06-22T08:01:44;101868.16;;;22.96;54.99
79527;BME280;68974;47.754;-3.364;2023-06-22T08:04:09;101876.97;;;23.07;54.68
79527;BME280;68974;47.754;-3.364;2023-06-22T08:06:35;101873.44;;;23.18;53.93
79527;BME280;68974;47.754;-3.364;2023-06-22T08:09:00;101866.72;;;23.40;53.56
79527;BME280;68974;47.754;-3.364;2023-06-22T08:11:25;101873.06;;;23.58;53.07
79527;BME280;68974;47.754;-3.364;2023-06-22T08:13:51;101876.25;;;23.89;52.47
79527;BME280;68974;47.754;-3.364;2023-06-22T08:16:17;101876.91;;;24.07;52.29
79527;BME280;68974;47.754;-3.364;2023-06-22T08:18:43;101883.47;;;24.32;50.85
79527;BME280;68974;47.754;-3.364;2023-06-22T08:21:08;101886.72;;;24.34;51.18
79527;BME280;68974;47.754;-3.364;2023-06-22T08:23:34;101884.00;;;24.25;51.94
79527;BME280;68974;47.754;-3.364;2023-06-22T08:26:00;101880.47;;;24.61;50.58
79527;BME280;68974;47.754;-3.364;2023-06-22T08:28:25;101870.22;;;24.89;49.61
79527;BME280;68974;47.754;-3.364;2023-06-22T08:30:51;101886.38;;;24.92;48.61
79527;BME280;68974;47.754;-3.364;2023-06-22T08:33:16;101883.09;;;25.02;49.41
79527;BME280;68974;47.754;-3.364;2023-06-22T08:35:42;101890.94;;;25.33;48.81
79527;BME280;68974;47.754;-3.364;2023-06-22T08:38:08;101887.44;;;25.24;48.54
79527;BME280;68974;47.754;-3.364;2023-06-22T08:40:34;101880.25;;;25.51;47.48
79527;BME280;68974;47.754;-3.364;2023-06-22T08:42:59;101891.50;;;25.75;47.36
79527;BME280;68974;47.754;-3.364;2023-06-22T08:45:25;101895.25;;;25.67;47.41
79527;BME280;68974;47.754;-3.364;2023-06-22T08:47:50;101892.41;;;25.79;47.28
79527;BME280;68974;47.754;-3.364;2023-06-22T08:50:15;101891.69;;;25.82;46.45
79527;BME280;68974;47.754;-3.364;2023-06-22T08:52:41;101898.63;;;25.85;46.15
79527;BME280;68974;47.754;-3.364;2023-06-22T08:55:07;101898.22;;;25.86;46.97
79527;BME280;68974;47.754;-3.364;2023-06-22T08:57:34;101905.75;;;26.10;46.23
79527;BME280;68974;47.754;-3.364;2023-06-22T08:59:59;101907.16;;;26.44;45.84
79527;BME280;68974;47.754;-3.364;2023-06-22T09:02:28;101910.97;;;26.36;45.85
79527;BME280;68974;47.754;-3.364;2023-06-22T09:04:57;101909.28;;;26.79;44.38
79527;BME280;68974;47.754;-3.364;2023-06-22T09:07:23;101915.69;;;26.91;43.95
79527;BME280;68974;47.754;-3.364;2023-06-22T09:09:50;101912.22;;;27.13;43.67
79527;BME280;68974;47.754;-3.364;2023-06-22T09:12:15;101913.22;;;26.90;43.45
79527;BME280;68974;47.754;-3.364;2023-06-22T09:14:41;101916.59;;;26.95;42.91
79527;BME280;68974;47.754;-3.364;2023-06-22T09:17:06;101930.63;;;27.42;42.76
79527;BME280;68974;47.754;-3.364;2023-06-22T09:19:32;101919.75;;;27.25;42.79
79527;BME280;68974;47.754;-3.364;2023-06-22T09:21:58;101922.44;;;27.02;42.91
79527;BME280;68974;47.754;-3.364;2023-06-22T09:24:23;101909.84;;;27.15;41.86
79527;BME280;68974;47.754;-3.364;2023-06-22T09:26:49;101918.47;;;27.38;42.36
79527;BME280;68974;47.754;-3.364;2023-06-22T09:29:14;101921.53;;;27.65;41.68
79527;BME280;68974;47.754;-3.364;2023-06-22T09:31:39;101919.91;;;28.02;40.75
79527;BME280;68974;47.754;-3.364;2023-06-22T09:34:05;101920.78;;;28.06;40.18
79527;BME280;68974;47.754;-3.364;2023-06-22T09:36:30;101929.72;;;28.47;39.86
79527;BME280;68974;47.754;-3.364;2023-06-22T09:38:55;101929.16;;;28.60;40.49
79527;BME280;68974;47.754;-3.364;2023-06-22T09:41:23;101923.44;;;28.76;38.20
79527;BME280;68974;47.754;-3.364;2023-06-22T09:43:49;101928.91;;;28.69;39.03
79527;BME280;68974;47.754;-3.364;2023-06-22T09:46:15;101930.88;;;28.65;38.93
79527;BME280;68974;47.754;-3.364;2023-06-22T09:48:41;101931.38;;;28.70;38.79
79527;BME280;68974;47.754;-3.364;2023-06-22T09:51:06;101938.22;;;28.69;39.24
79527;BME280;68974;47.754;-3.364;2023-06-22T09:53:32;101937.06;;;28.93;37.80
79527;BME280;68974;47.754;-3.364;2023-06-22T09:55:57;101939.47;;;28.91;38.42
79527;BME280;68974;47.754;-3.364;2023-06-22T09:58:23;101932.66;;;29.18;37.62
79527;BME280;68974;47.754;-3.364;2023-06-22T10:00:48;101939.16;;;29.22;37.53
79527;BME280;68974;47.754;-3.364;2023-06-22T10:03:14;101930.47;;;29.31;37.91
79527;BME280;68974;47.754;-3.364;2023-06-22T10:05:39;101937.72;;;29.55;36.92
79527;BME280;68974;47.754;-3.364;2023-06-22T10:08:04;101938.72;;;29.69;36.27
79527;BME280;68974;47.754;-3.364;2023-06-22T10:10:30;101935.63;;;30.08;35.27
79527;BME280;68974;47.754;-3.364;2023-06-22T10:12:57;101930.28;;;29.73;34.83
79527;BME280;68974;47.754;-3.364;2023-06-22T10:15:23;101929.63;;;30.13;35.32
79527;BME280;68974;47.754;-3.364;2023-06-22T10:17:48;101926.56;;;30.29;34.56
79527;BME280;68974;47.754;-3.364;2023-06-22T10:20:14;101928.91;;;30.53;35.00
79527;BME280;68974;47.754;-3.364;2023-06-22T10:22:44;101933.16;;;30.73;33.33
79527;BME280;68974;47.754;-3.364;2023-06-22T10:25:11;101927.69;;;30.54;33.89
79527;BME280;68974;47.754;-3.364;2023-06-22T10:27:37;101938.19;;;30.90;33.53
79527;BME280;68974;47.754;-3.364;2023-06-22T10:30:06;101936.34;;;30.68;33.05
79527;BME280;68974;47.754;-3.364;2023-06-22T10:32:32;101940.38;;;30.64;33.15
79527;BME280;68974;47.754;-3.364;2023-06-22T10:34:58;101931.03;;;30.63;33.46
79527;BME280;68974;47.754;-3.364;2023-06-22T10:37:23;101937.78;;;30.88;32.92
79527;BME280;68974;47.754;-3.364;2023-06-22T10:39:48;101940.84;;;29.76;34.61
79527;BME280;68974;47.754;-3.364;2023-06-22T10:42:14;101937.41;;;30.53;35.11
79527;BME280;68974;47.754;-3.364;2023-06-22T10:44:39;101939.00;;;30.91;33.25
79527;BME280;68974;47.754;-3.364;2023-06-22T10:47:08;101937.72;;;31.29;32.61
79527;BME280;68974;47.754;-3.364;2023-06-22T10:49:33;101946.47;;;31.10;32.09
79527;BME280;68974;47.754;-3.364;2023-06-22T10:51:59;101944.22;;;30.89;32.31
79527;BME280;68974;47.754;-3.364;2023-06-22T10:54:24;101942.56;;;31.25;31.61
79527;BME280;68974;47.754;-3.364;2023-06-22T10:56:49;101950.81;;;31.44;30.56
79527;BME280;68974;47.754;-3.364;2023-06-22T10:59:16;101954.41;;;31.96;30.45
79527;BME280;68974;47.754;-3.364;2023-06-22T11:01:41;101952.09;;;32.19;30.47
79527;BME280;68974;47.754;-3.364;2023-06-22T11:04:06;101956.06;;;32.07;30.07
79527;BME280;68974;47.754;-3.364;2023-06-22T11:06:32;101954.13;;;32.18;29.26
79527;BME280;68974;47.754;-3.364;2023-06-22T11:08:57;101952.53;;;32.28;29.32
79527;BME280;68974;47.754;-3.364;2023-06-22T11:11:25;101960.63;;;32.19;30.66
79527;BME280;68974;47.754;-3.364;2023-06-22T11:13:50;101952.09;;;32.15;30.16
79527;BME280;68974;47.754;-3.364;2023-06-22T11:16:15;101955.47;;;32.53;30.16
79527;BME280;68974;47.754;-3.364;2023-06-22T11:18:41;101959.28;;;32.02;29.29
79527;BME280;68974;47.754;-3.364;2023-06-22T11:21:06;101964.91;;;31.92;30.27
79527;BME280;68974;47.754;-3.364;2023-06-22T11:23:32;101967.22;;;32.44;28.77
79527;BME280;68974;47.754;-3.364;2023-06-22T11:25:57;101949.38;;;32.61;28.93
79527;BME280;68974;47.754;-3.364;2023-06-22T11:28:23;101966.41;;;31.64;30.25
79527;BME280;68974;47.754;-3.364;2023-06-22T11:30:48;101961.13;;;30.41;32.49
79527;BME280;68974;47.754;-3.364;2023-06-22T11:33:14;101971.34;;;29.60;33.35
79527;BME280;68974;47.754;-3.364;2023-06-22T11:35:40;101969.25;;;28.85;36.04
79527;BME280;68974;47.754;-3.364;2023-06-22T11:38:05;101966.72;;;28.38;37.47
79527;BME280;68974;47.754;-3.364;2023-06-22T11:40:30;101971.75;;;28.10;38.88
79527;BME280;68974;47.754;-3.364;2023-06-22T11:42:56;101969.63;;;29.06;37.75
79527;BME280;68974;47.754;-3.364;2023-06-22T11:45:21;101968.94;;;29.62;37.04
79527;BME280;68974;47.754;-3.364;2023-06-22T11:47:47;101958.97;;;29.98;35.34
79527;BME280;68974;47.754;-3.364;2023-06-22T11:50:13;101969.59;;;30.38;34.65
79527;BME280;68974;47.754;-3.364;2023-06-22T11:52:38;101962.94;;;30.53;35.38
79527;BME280;68974;47.754;-3.364;2023-06-22T11:55:04;101964.56;;;30.94;35.06
79527;BME280;68974;47.754;-3.364;2023-06-22T11:57:36;101953.66;;;31.00;34.01
79527;BME280;68974;47.754;-3.364;2023-06-22T12:00:02;101947.97;;;31.44;33.64
79527;BME280;68974;47.754;-3.364;2023-06-22T12:02:31;101942.63;;;31.35;34.21
79527;BME280;68974;47.754;-3.364;2023-06-22T12:04:57;101950.53;;;31.56;33.33
79527;BME280;68974;47.754;-3.364;2023-06-22T12:07:23;101950.00;;;30.99;33.66
79527;BME280;68974;47.754;-3.364;2023-06-22T12:09:48;101936.47;;;30.45;34.07
79527;BME280;68974;47.754;-3.364;2023-06-22T12:12:14;101938.75;;;30.66;34.22
79527;BME280;68974;47.754;-3.364;2023-06-22T12:14:39;101941.41;;;30.89;32.79
79527;BME280;68974;47.754;-3.364;2023-06-22T12:17:05;101946.28;;;30.88;34.10
79527;BME280;68974;47.754;-3.364;2023-06-22T12:19:30;101933.59;;;31.19;34.06
79527;BME280;68974;47.754;-3.364;2023-06-22T12:21:55;101932.75;;;31.19;34.29
79527;BME280;68974;47.754;-3.364;2023-06-22T12:24:21;101934.00;;;31.18;33.52
79527;BME280;68974;47.754;-3.364;2023-06-22T12:26:46;101931.56;;;30.79;34.19
79527;BME280;68974;47.754;-3.364;2023-06-22T12:29:11;101926.22;;;31.08;34.02
79527;BME280;68974;47.754;-3.364;2023-06-22T12:31:37;101934.34;;;31.13;33.45
79527;BME280;68974;47.754;-3.364;2023-06-22T12:34:04;101932.16;;;30.95;33.57
79527;BME280;68974;47.754;-3.364;2023-06-22T12:36:30;101937.69;;;31.22;33.53
79527;BME280;68974;47.754;-3.364;2023-06-22T12:38:55;101939.38;;;31.33;33.61